Queen Victoria — ZCEF3 — position and weather

sailwx.info

Track history (hours):
 
Tides and Currents Weather Stations Pressure Air Temp Water Temp Dewpoint Dewpoint Depression Visibility Wind Speed Wind Dir Waves Ship Positions

Queen Victoria

Last reported at 2020-Sep-18 04:41 UTC. Time now 2020-Sep-18 06:26 UTC.
Position N 50°36' W 002°22'.

Length 294 m; draft 8 m.

Type: Ship. MMSI: 310624000.

Date/timePositionNaut miles runAvg speedWind from/ knotsBaromVisibWave heightAir tempDewpointWater temp
2020-Sep-18 04:41N 50°36' W 002°22'0 0.0
2020-Sep-17 19:29N 50°36' W 002°22'0 0.0
2020-Sep-17 16:57N 50°36' W 002°22'0 0.0
2020-Sep-17 15:27N 50°36' W 002°22'0 0.1
2020-Sep-17 14:29N 50°36' W 002°22'15 6.0
2020-Sep-17 12:00N 50°23' W 002°11'14 3.6
2020-Sep-17 07:59N 50°36' W 002°22'0 0.1
2020-Sep-17 07:14N 50°36' W 002°22'0 0.0
2020-Sep-17 06:59N 50°36' W 002°22'0 0.1
2020-Sep-17 06:29N 50°36' W 002°22'0 0.0
2020-Sep-17 02:47N 50°36' W 002°22'0 0.0
2020-Sep-17 01:17N 50°36' W 002°22'0 0.0
2020-Sep-17 00:59N 50°36' W 002°22'0 0.0
2020-Sep-16 23:53N 50°36' W 002°22'0 0.0
2020-Sep-16 20:14N 50°36' W 002°22'0 0.0
2020-Sep-16 18:26N 50°36' W 002°22'0 0.0
2020-Sep-16 17:59N 50°36' W 002°22'0 0.0
2020-Sep-16 16:53N 50°36' W 002°22'0 0.0
2020-Sep-16 16:26N 50°36' W 002°22'0 0.0
2020-Sep-16 11:41N 50°36' W 002°22'0 0.0
2020-Sep-16 04:53N 50°36' W 002°22'0 0.0
2020-Sep-16 04:17N 50°36' W 002°22'0 0.0
2020-Sep-15 23:59N 50°36' W 002°22'0 0.0
2020-Sep-15 23:17N 50°36' W 002°22'0 0.0
2020-Sep-15 22:23N 50°36' W 002°22'0 0.0
2020-Sep-15 20:17N 50°36' W 002°21'0 0.0
2020-Sep-15 11:32N 50°36' W 002°21'0 0.0
2020-Sep-15 09:11N 50°36' W 002°21'0 0.0
2020-Sep-15 07:29N 50°36' W 002°22'0 0.0
2020-Sep-15 05:05N 50°36' W 002°22'0 0.0
2020-Sep-15 02:59N 50°36' W 002°22'0 0.0
2020-Sep-15 01:41N 50°36' W 002°22'0 0.0
2020-Sep-14 20:59N 50°36' W 002°22'0 0.0
2020-Sep-14 19:59N 50°36' W 002°22'0 0.0
2020-Sep-14 14:29N 50°36' W 002°22'0 0.0
2020-Sep-14 12:29N 50°36' W 002°21'0 0.0
2020-Sep-14 09:56N 50°36' W 002°21'0 0.0
2020-Sep-14 06:29N 50°36' W 002°21'0 0.0
2020-Sep-14 05:29N 50°36' W 002°21'0 0.0
2020-Sep-14 04:59N 50°36' W 002°21'0 0.0
2020-Sep-14 03:59N 50°36' W 002°21'0 0.0
2020-Sep-14 03:29N 50°36' W 002°21'0 0.0
2020-Sep-14 02:59N 50°36' W 002°21'0 0.0
2020-Sep-14 02:29N 50°36' W 002°21'0 0.0
2020-Sep-14 01:59N 50°36' W 002°21'0 0.0
2020-Sep-14 00:59N 50°36' W 002°21'0 0.0
2020-Sep-13 22:26N 50°36' W 002°21'0 0.0
2020-Sep-13 21:56N 50°36' W 002°21'0 0.0
2020-Sep-13 21:29N 50°36' W 002°21'0 0.0
2020-Sep-13 15:53N 50°36' W 002°21'0 0.0
2020-Sep-13 15:26N 50°36' W 002°21'0 0.0
2020-Sep-13 14:29N 50°36' W 002°21'0 0.0
2020-Sep-13 13:26N 50°36' W 002°21'0 0.0
2020-Sep-13 08:47N 50°36' W 002°21'0 0.0
2020-Sep-13 08:11N 50°36' W 002°21'0 0.0
2020-Sep-13 03:38N 50°36' W 002°21'0 0.0
2020-Sep-13 01:59N 50°36' W 002°21'0 0.0
2020-Sep-12 23:29N 50°36' W 002°21'0 0.0
2020-Sep-12 20:20N 50°36' W 002°21'0 0.0
2020-Sep-12 15:47N 50°36' W 002°21'0 0.1
2020-Sep-12 15:29N 50°36' W 002°21'0 0.0
2020-Sep-12 14:29N 50°36' W 002°21'0 0.0
2020-Sep-12 04:14N 50°36' W 002°21'0 0.0
2020-Sep-12 01:29N 50°36' W 002°21'0 0.0
2020-Sep-11 23:44N 50°36' W 002°21'0 0.0
2020-Sep-11 22:23N 50°36' W 002°21'0 0.0
2020-Sep-11 18:35N 50°36' W 002°21'0 0.0
2020-Sep-10 23:17N 50°36' W 002°21'1 0.1
2020-Sep-10 14:15N 50°35' W 002°20'4 0.8
2020-Sep-10 09:26N 50°35' W 002°26'3 0.5
2020-Sep-10 03:16N 50°35' W 002°22'0 0.0
2020-Sep-10 01:28N 50°35' W 002°21'0 0.0
2020-Sep-09 10:58N 50°36' W 002°21'0 0.0
2020-Sep-09 09:28N 50°36' W 002°21'0 0.0
2020-Sep-09 08:58N 50°36' W 002°21'0 0.0
2020-Sep-09 07:58N 50°36' W 002°21'0 0.0
2020-Sep-09 06:58N 50°36' W 002°21'0 0.0
2020-Sep-09 05:58N 50°36' W 002°21'0 0.0
2020-Sep-09 02:58N 50°36' W 002°21'0 0.0
2020-Sep-09 01:58N 50°36' W 002°21'0 0.0
2020-Sep-09 00:58N 50°36' W 002°21'0 0.0
2020-Sep-09 00:28N 50°36' W 002°21'0 0.0
2020-Sep-08 23:28N 50°36' W 002°21'0 0.0
2020-Sep-08 18:58N 50°36' W 002°21'0 0.0
2020-Sep-08 16:28N 50°36' W 002°21'0 0.0
2020-Sep-08 15:28N 50°36' W 002°21'0 0.0
2020-Sep-08 14:28N 50°36' W 002°21'0 0.0
2020-Sep-08 13:16N 50°36' W 002°21'0 0.1
2020-Sep-08 12:58N 50°36' W 002°21'0 0.0
2020-Sep-08 08:34N 50°36' W 002°21'0 0.0
2020-Sep-08 07:34N 50°36' W 002°21'  
Track history (hours):
 
Tides and Currents Weather Stations Pressure Air Temp Water Temp Dewpoint Dewpoint Depression Visibility Wind Speed Wind Dir Waves Ship Positions

Queen Victoria

Last reported at 2020-Sep-18 04:41 UTC. Time now 2020-Sep-18 06:26 UTC.
Position N 50°36' W 002°22'.

Length 294 m; draft 8 m.

Type: Ship. MMSI: 310624000.

Date/timePositionNaut miles runAvg speedWind from/ knotsBaromVisibWave heightAir tempDewpointWater temp
2020-Sep-18 04:41N 50°36' W 002°22'0 0.0
2020-Sep-17 19:29N 50°36' W 002°22'0 0.0
2020-Sep-17 16:57N 50°36' W 002°22'0 0.0
2020-Sep-17 15:27N 50°36' W 002°22'0 0.1
2020-Sep-17 14:29N 50°36' W 002°22'15 6.0
2020-Sep-17 12:00N 50°23' W 002°11'14 3.6
2020-Sep-17 07:59N 50°36' W 002°22'0 0.1
2020-Sep-17 07:14N 50°36' W 002°22'0 0.0
2020-Sep-17 06:59N 50°36' W 002°22'0 0.1
2020-Sep-17 06:29N 50°36' W 002°22'0 0.0
2020-Sep-17 02:47N 50°36' W 002°22'0 0.0
2020-Sep-17 01:17N 50°36' W 002°22'0 0.0
2020-Sep-17 00:59N 50°36' W 002°22'0 0.0
2020-Sep-16 23:53N 50°36' W 002°22'0 0.0
2020-Sep-16 20:14N 50°36' W 002°22'0 0.0
2020-Sep-16 18:26N 50°36' W 002°22'0 0.0
2020-Sep-16 17:59N 50°36' W 002°22'0 0.0
2020-Sep-16 16:53N 50°36' W 002°22'0 0.0
2020-Sep-16 16:26N 50°36' W 002°22'0 0.0
2020-Sep-16 11:41N 50°36' W 002°22'0 0.0
2020-Sep-16 04:53N 50°36' W 002°22'0 0.0
2020-Sep-16 04:17N 50°36' W 002°22'0 0.0
2020-Sep-15 23:59N 50°36' W 002°22'0 0.0
2020-Sep-15 23:17N 50°36' W 002°22'0 0.0
2020-Sep-15 22:23N 50°36' W 002°22'0 0.0
2020-Sep-15 20:17N 50°36' W 002°21'0 0.0
2020-Sep-15 11:32N 50°36' W 002°21'0 0.0
2020-Sep-15 09:11N 50°36' W 002°21'0 0.0
2020-Sep-15 07:29N 50°36' W 002°22'0 0.0
2020-Sep-15 05:05N 50°36' W 002°22'0 0.0
2020-Sep-15 02:59N 50°36' W 002°22'0 0.0
2020-Sep-15 01:41N 50°36' W 002°22'0 0.0
2020-Sep-14 20:59N 50°36' W 002°22'0 0.0
2020-Sep-14 19:59N 50°36' W 002°22'0 0.0
2020-Sep-14 14:29N 50°36' W 002°22'0 0.0
2020-Sep-14 12:29N 50°36' W 002°21'0 0.0
2020-Sep-14 09:56N 50°36' W 002°21'0 0.0
2020-Sep-14 06:29N 50°36' W 002°21'0 0.0
2020-Sep-14 05:29N 50°36' W 002°21'0 0.0
2020-Sep-14 04:59N 50°36' W 002°21'0 0.0
2020-Sep-14 03:59N 50°36' W 002°21'0 0.0
2020-Sep-14 03:29N 50°36' W 002°21'0 0.0
2020-Sep-14 02:59N 50°36' W 002°21'0 0.0
2020-Sep-14 02:29N 50°36' W 002°21'0 0.0
2020-Sep-14 01:59N 50°36' W 002°21'0 0.0
2020-Sep-14 00:59N 50°36' W 002°21'0 0.0
2020-Sep-13 22:26N 50°36' W 002°21'0 0.0
2020-Sep-13 21:56N 50°36' W 002°21'0 0.0
2020-Sep-13 21:29N 50°36' W 002°21'0 0.0
2020-Sep-13 15:53N 50°36' W 002°21'0 0.0
2020-Sep-13 15:26N 50°36' W 002°21'0 0.0
2020-Sep-13 14:29N 50°36' W 002°21'0 0.0
2020-Sep-13 13:26N 50°36' W 002°21'0 0.0
2020-Sep-13 08:47N 50°36' W 002°21'0 0.0
2020-Sep-13 08:11N 50°36' W 002°21'0 0.0
2020-Sep-13 03:38N 50°36' W 002°21'0 0.0
2020-Sep-13 01:59N 50°36' W 002°21'0 0.0
2020-Sep-12 23:29N 50°36' W 002°21'0 0.0
2020-Sep-12 20:20N 50°36' W 002°21'0 0.0
2020-Sep-12 15:47N 50°36' W 002°21'0 0.1
2020-Sep-12 15:29N 50°36' W 002°21'0 0.0
2020-Sep-12 14:29N 50°36' W 002°21'0 0.0
2020-Sep-12 04:14N 50°36' W 002°21'0 0.0
2020-Sep-12 01:29N 50°36' W 002°21'0 0.0
2020-Sep-11 23:44N 50°36' W 002°21'0 0.0
2020-Sep-11 22:23N 50°36' W 002°21'0 0.0
2020-Sep-11 18:35N 50°36' W 002°21'0 0.0
2020-Sep-10 23:17N 50°36' W 002°21'1 0.1
2020-Sep-10 14:15N 50°35' W 002°20'4 0.8
2020-Sep-10 09:26N 50°35' W 002°26'3 0.5
2020-Sep-10 03:16N 50°35' W 002°22'0 0.0
2020-Sep-10 01:28N 50°35' W 002°21'0 0.0
2020-Sep-09 10:58N 50°36' W 002°21'0 0.0
2020-Sep-09 09:28N 50°36' W 002°21'0 0.0
2020-Sep-09 08:58N 50°36' W 002°21'0 0.0
2020-Sep-09 07:58N 50°36' W 002°21'0 0.0
2020-Sep-09 06:58N 50°36' W 002°21'0 0.0
2020-Sep-09 05:58N 50°36' W 002°21'0 0.0
2020-Sep-09 02:58N 50°36' W 002°21'0 0.0
2020-Sep-09 01:58N 50°36' W 002°21'0 0.0
2020-Sep-09 00:58N 50°36' W 002°21'0 0.0
2020-Sep-09 00:28N 50°36' W 002°21'0 0.0
2020-Sep-08 23:28N 50°36' W 002°21'0 0.0
2020-Sep-08 18:58N 50°36' W 002°21'0 0.0
2020-Sep-08 16:28N 50°36' W 002°21'0 0.0
2020-Sep-08 15:28N 50°36' W 002°21'0 0.0
2020-Sep-08 14:28N 50°36' W 002°21'0 0.0
2020-Sep-08 13:16N 50°36' W 002°21'0 0.1
2020-Sep-08 12:58N 50°36' W 002°21'0 0.0
2020-Sep-08 08:34N 50°36' W 002°21'0 0.0
2020-Sep-08 07:34N 50°36' W 002°21'  

Dump ship's entire track history